Time;durP1;ratioP1;P1;durP2;ratioP2;P2;SDS_P1;SDS_P2;PMS_P1;PMS_P2;Temp;Humidity;BMP_temperature;BMP_pressure;BME280_temperature;BME280_humidity;BME280_pressure;Samples;Min_cycle;Max_cycle;Signal;HPM_P1;HPM_P2
2022/12/12 00:00:06;;;;;;;38.80;22.57;;;;;;;-0.88;93.65;100958.72;5016442;28;20062;-59
2022/12/12 00:02:35;;;;;;;36.77;21.63;;;;;;;-0.84;94.38;100964.63;5016794;28;20029;-58
2022/12/12 00:05:00;;;;;;;37.27;22.10;;;;;;;-0.85;94.01;100966.41;5017772;28;20120;-58
2022/12/12 00:07:26;;;;;;;37.03;22.70;;;;;;;-0.86;94.14;100966.47;5024674;28;20100;-58
2022/12/12 00:09:51;;;;;;;37.80;22.53;;;;;;;-0.89;94.65;100977.88;5017066;28;20108;-58
2022/12/12 00:12:16;;;;;;;38.20;21.27;;;;;;;-0.90;94.84;100964.97;5031116;28;20035;-58
2022/12/12 00:14:41;;;;;;;37.70;22.17;;;;;;;-0.94;94.35;100977.28;5020385;28;20035;-60
2022/12/12 00:17:07;;;;;;;36.27;21.93;;;;;;;-0.92;94.60;100977.22;5029078;28;20060;-58
2022/12/12 00:19:32;;;;;;;37.63;21.57;;;;;;;-0.92;94.81;100965.06;5027647;28;20025;-58
2022/12/12 00:21:57;;;;;;;37.67;21.87;;;;;;;-0.97;94.48;100972.28;5021084;28;20469;-58
2022/12/12 00:24:23;;;;;;;39.20;21.57;;;;;;;-0.98;94.38;100968.81;5021512;28;20032;-59
2022/12/12 00:26:48;;;;;;;38.07;21.93;;;;;;;-1.00;94.31;100970.66;5026554;28;20025;-59
2022/12/12 00:29:13;;;;;;;37.33;21.33;;;;;;;-1.02;94.45;100963.88;5028060;28;20021;-58
2022/12/12 00:31:38;;;;;;;36.17;21.63;;;;;;;-1.01;94.49;100969.00;5015287;28;20056;-59
2022/12/12 00:34:04;;;;;;;37.83;21.93;;;;;;;-1.02;94.92;100971.69;5029953;28;20049;-60
2022/12/12 00:36:30;;;;;;;35.53;21.07;;;;;;;-1.03;94.86;100978.63;5024425;28;20025;-59
2022/12/12 00:38:56;;;;;;;36.93;21.50;;;;;;;-1.07;94.75;100974.53;5019713;28;20042;-59
2022/12/12 00:41:21;;;;;;;39.23;22.63;;;;;;;-1.09;95.40;100976.34;5032402;28;20037;-59
2022/12/12 00:43:47;;;;;;;39.07;21.97;;;;;;;-1.14;94.65;100978.41;5033894;28;20052;-59
2022/12/12 00:46:15;;;;;;;33.60;20.17;;;;;;;-1.15;94.93;100979.28;5024531;28;20048;-59
2022/12/12 00:48:40;;;;;;;37.23;21.80;;;;;;;-1.17;94.72;100978.53;5024317;28;20680;-59
2022/12/12 00:51:12;;;;;;;36.10;22.17;;;;;;;-1.22;95.13;100976.19;5034027;28;20457;-58
2022/12/12 00:53:37;;;;;;;38.50;22.20;;;;;;;-1.26;94.62;100978.13;5019426;28;20409;-59
2022/12/12 00:56:03;;;;;;;38.00;21.67;;;;;;;-1.27;94.43;100978.19;5025505;28;20042;-60
2022/12/12 00:58:29;;;;;;;37.97;22.73;;;;;;;-1.31;95.20;100977.53;5022365;28;20386;-59
2022/12/12 01:00:54;;;;;;;36.03;20.70;;;;;;;-1.29;95.07;100986.06;5031725;28;20065;-59
2022/12/12 01:03:20;;;;;;;38.37;22.13;;;;;;;-1.32;94.54;100986.25;5034170;28;20025;-58
2022/12/12 01:05:45;;;;;;;37.70;22.00;;;;;;;-1.34;95.42;100993.28;5021190;28;20088;-58
2022/12/12 01:08:11;;;;;;;38.13;22.17;;;;;;;-1.40;95.05;100994.44;5029995;28;20108;-58
2022/12/12 01:10:36;;;;;;;38.70;22.33;;;;;;;-1.42;95.44;100992.84;5029143;28;20033;-58
2022/12/12 01:13:02;;;;;;;39.13;22.70;;;;;;;-1.49;94.99;100998.38;5021377;28;20025;-58
2022/12/12 01:15:28;;;;;;;39.73;21.43;;;;;;;-1.51;95.96;100997.63;5030697;28;20109;-59
2022/12/12 01:17:53;;;;;;;38.03;21.43;;;;;;;-1.54;95.94;101000.34;5033548;28;20111;-60
2022/12/12 01:20:22;;;;;;;40.10;22.47;;;;;;;-1.55;95.88;101006.47;5028225;28;20517;-59
2022/12/12 01:22:48;;;;;;;38.20;22.33;;;;;;;-1.57;96.01;101003.13;5030186;28;20025;-62
2022/12/12 01:25:15;;;;;;;35.87;21.50;;;;;;;-1.56;95.93;101003.97;5016883;28;20042;-60
2022/12/12 01:27:41;;;;;;;37.63;21.27;;;;;;;-1.55;96.07;101010.84;5032670;28;20087;-59
2022/12/12 01:30:07;;;;;;;36.20;21.17;;;;;;;-1.55;95.88;101011.69;5022863;28;20409;-59
2022/12/12 01:32:33;;;;;;;37.97;21.27;;;;;;;-1.56;96.35;101011.75;5028180;28;20022;-60
2022/12/12 01:34:58;;;;;;;38.27;21.37;;;;;;;-1.58;96.22;101017.03;5028140;28;20084;-58
2022/12/12 01:37:24;;;;;;;37.17;21.37;;;;;;;-1.57;95.86;101023.94;5024670;28;20493;-59
2022/12/12 01:39:49;;;;;;;39.43;21.40;;;;;;;-1.59;95.78;101020.56;5028490;28;20132;-58
2022/12/12 01:42:17;;;;;;;38.43;22.37;;;;;;;-1.65;95.71;101016.53;5030867;28;20648;-59
2022/12/12 01:44:51;;;;;;;39.80;21.57;;;;;;;-1.65;96.39;101024.31;5028543;28;20096;-58
2022/12/12 01:47:19;;;;;;;39.13;21.90;;;;;;;-1.64;96.39;101017.34;5027213;28;20063;-59
2022/12/12 01:49:51;;;;;;;39.37;21.53;;;;;;;-1.66;95.60;101019.19;5027207;28;20021;-59
2022/12/12 01:52:20;;;;;;;36.90;21.20;;;;;;;-1.66;95.74;101019.19;5030644;28;20411;-58
2022/12/12 01:54:49;;;;;;;38.53;21.67;;;;;;;-1.70;95.85;101017.66;5018670;28;20030;-59
2022/12/12 01:57:23;;;;;;;38.40;21.43;;;;;;;-1.67;95.70;101022.72;5027459;28;20037;-59
2022/12/12 01:59:49;;;;;;;38.33;21.57;;;;;;;-1.74;95.32;101026.53;5022992;28;20179;-59
2022/12/12 02:02:14;;;;;;;40.10;22.03;;;;;;;-1.79;95.62;101025.00;5030665;28;20729;-59
2022/12/12 02:04:41;;;;;;;38.57;21.10;;;;;;;-1.78;96.08;101031.88;5024363;28;20088;-59
2022/12/12 02:07:06;;;;;;;38.27;20.53;;;;;;;-1.81;95.73;101037.25;5027685;28;20025;-58
2022/12/12 02:09:33;;;;;;;38.17;22.10;;;;;;;-1.83;96.04;101033.88;5026647;28;20029;-59
2022/12/12 02:11:58;;;;;;;40.00;22.30;;;;;;;-1.86;96.03;101033.19;5016387;28;20034;-59
2022/12/12 02:14:44;;;;;;;36.60;21.47;;;;;;;-1.85;96.07;101030.50;5022487;28;20091;-59
2022/12/12 02:17:31;;;;;;;41.27;22.47;;;;;;;-1.85;96.15;101029.66;5023352;28;20046;-58
2022/12/12 02:20:14;;;;;;;39.33;22.53;;;;;;;-1.92;95.98;101031.75;5029409;28;20446;-58
2022/12/12 02:22:59;;;;;;;39.93;22.40;;;;;;;-1.97;96.47;101018.13;5027223;28;20038;-59
2022/12/12 02:26:01;;;;;;;39.27;22.27;;;;;;;-1.94;96.51;101029.22;5025564;28;20041;-58
2022/12/12 02:29:01;;;;;;;40.13;23.23;;;;;;;-1.90;96.34;101037.69;5030568;28;20033;-59
2022/12/12 02:31:42;;;;;;;38.47;21.60;;;;;;;-1.96;95.87;101038.84;5027975;28;20048;-58
2022/12/12 02:34:44;;;;;;;39.00;22.37;;;;;;;-1.93;96.06;101043.88;5032630;28;20057;-59
2022/12/12 02:37:31;;;;;;;39.53;22.77;;;;;;;-1.97;96.25;101044.13;5024845;28;20030;-59
2022/12/12 02:39:59;;;;;;;40.20;22.60;;;;;;;-1.99;96.20;101043.34;5020568;28;20033;-59
2022/12/12 02:42:56;;;;;;;41.93;22.80;;;;;;;-1.98;96.03;101040.66;5027125;28;20064;-59
2022/12/12 02:45:39;;;;;;;38.23;21.80;;;;;;;-2.05;96.12;101045.34;5030391;28;20055;-59
2022/12/12 02:48:34;;;;;;;41.88;21.77;;;;;;;-2.05;95.99;101044.47;5017928;28;20034;-59
2022/12/12 02:51:01;;;;;;;40.73;22.57;;;;;;;-2.12;96.18;101037.91;5030417;28;20075;-58
2022/12/12 02:53:27;;;;;;;42.43;21.97;;;;;;;-2.12;96.19;101038.72;5028538;28;20033;-58
2022/12/12 02:56:07;;;;;;;39.57;21.27;;;;;;;-2.08;95.92;101039.44;5030122;28;20045;-58
2022/12/12 02:58:36;;;;;;;38.67;21.40;;;;;;;-2.16;95.94;101035.44;5018572;28;20034;-59
2022/12/12 03:01:21;;;;;;;38.77;22.33;;;;;;;-2.16;96.37;101037.22;5023039;28;20576;-58
2022/12/12 03:09:48;;;;;;;36.90;21.03;;;;;;;-2.20;95.63;101030.47;5019621;28;20060;-57
2022/12/12 03:12:30;;;;;;;40.30;21.20;;;;;;;-2.22;96.03;101034.91;5019076;28;20064;-58
2022/12/12 03:15:12;;;;;;;37.43;21.27;;;;;;;-2.23;95.84;101033.22;5029991;28;20112;-60
2022/12/12 03:17:41;;;;;;;37.03;21.25;;;;;;;-2.26;95.71;101036.81;5029658;28;20108;-59
2022/12/12 03:20:06;;;;;;;38.10;21.33;;;;;;;-2.31;95.52;101034.41;5024325;28;20034;-58
2022/12/12 03:22:43;;;;;;;39.50;20.43;;;;;;;-2.31;95.62;101033.59;5032274;28;20036;-58
2022/12/12 03:25:18;;;;;;;38.63;20.60;;;;;;;-2.37;95.25;101024.31;5023115;28;20098;-58
2022/12/12 03:27:59;;;;;;;40.10;21.33;;;;;;;-2.37;95.50;101026.91;5018617;28;20630;-59
2022/12/12 03:30:28;;;;;;;36.90;20.10;;;;;;;-2.40;95.50;101026.22;5025193;28;20047;-59
2022/12/12 03:33:01;;;;;;;38.57;21.27;;;;;;;-2.44;95.44;101028.13;5030886;28;20029;-59
2022/12/12 03:35:33;;;;;;;38.13;20.40;;;;;;;-2.46;95.13;101029.97;5020300;28;20577;-58
2022/12/12 03:38:11;;;;;;;37.63;21.33;;;;;;;-2.51;95.30;101026.75;5023854;28;20470;-58
2022/12/12 03:40:45;;;;;;;40.90;21.83;;;;;;;-2.52;94.93;101027.66;5023202;28;20034;-59
2022/12/12 03:43:15;;;;;;;39.83;20.57;;;;;;;-2.63;95.48;101031.59;5031767;28;20057;-59
2022/12/12 03:45:52;;;;;;;39.23;21.17;;;;;;;-2.62;95.53;101030.66;5029609;28;20496;-60
2022/12/12 03:48:26;;;;;;;38.97;21.73;;;;;;;-2.61;95.39;101037.53;5024044;28;20120;-58
2022/12/12 03:51:03;;;;;;;38.80;21.03;;;;;;;-2.62;95.56;101041.06;5027983;28;20136;-60
2022/12/12 03:53:42;;;;;;;40.67;20.97;;;;;;;-2.62;95.39;101041.06;5023459;28;20025;-58
2022/12/12 03:56:23;;;;;;;41.77;20.87;;;;;;;-2.65;95.43;101046.41;5029462;28;20030;-58
2022/12/12 03:58:59;;;;;;;41.50;20.80;;;;;;;-2.67;95.57;101043.00;5021461;28;20041;-58
2022/12/12 04:01:35;;;;;;;37.57;20.93;;;;;;;-2.71;95.55;101041.50;5021410;28;20110;-58
2022/12/12 04:04:20;;;;;;;40.50;21.20;;;;;;;-2.72;95.32;101039.78;5022985;28;20033;-59
2022/12/12 04:06:55;;;;;;;40.53;21.00;;;;;;;-2.76;95.92;101036.50;5018956;28;20038;-58
2022/12/12 04:12:59;;;;;;;37.70;20.10;;;;;;;-2.81;96.02;101024.66;5023597;28;20524;-59
2022/12/12 04:15:52;;;;;;;39.37;21.27;;;;;;;-2.76;95.72;101040.84;5027364;28;20043;-59
2022/12/12 04:18:33;;;;;;;40.53;21.33;;;;;;;-2.88;95.81;101032.72;5019305;28;20370;-58
2022/12/12 04:24:11;;;;;;;40.87;20.57;;;;;;;-2.87;95.53;101047.38;5019778;28;20193;-60
2022/12/12 04:26:48;;;;;;;39.20;21.53;;;;;;;-2.89;95.08;101053.53;5018268;28;20026;-60
2022/12/12 04:29:36;;;;;;;39.60;20.57;;;;;;;-2.89;95.08;101048.34;5028448;28;21108;-58
2022/12/12 04:32:28;;;;;;;38.77;20.97;;;;;;;-2.90;95.65;101062.25;5026555;28;20365;-58
2022/12/12 04:35:05;;;;;;;38.63;19.73;;;;;;;-2.91;94.97;101052.78;5029349;28;20041;-58
2022/12/12 04:37:44;;;;;;;40.87;20.77;;;;;;;-2.88;95.38;101066.44;5018120;28;20113;-60
2022/12/12 04:40:13;;;;;;;36.50;19.40;;;;;;;-2.97;94.87;101059.06;5020593;28;20038;-59
2022/12/12 04:42:50;;;;;;;37.97;20.30;;;;;;;-2.95;95.35;101070.25;5026195;28;20057;-60
2022/12/12 04:45:20;;;;;;;40.07;21.33;;;;;;;-3.00;95.24;101077.38;5031699;28;20047;-58
2022/12/12 04:47:49;;;;;;;40.10;20.43;;;;;;;-3.04;95.30;101070.63;5024819;28;20018;-58
2022/12/12 04:50:15;;;;;;;39.07;20.23;;;;;;;-3.00;95.32;101074.78;5025604;28;20469;-58
2022/12/12 04:52:43;;;;;;;39.33;21.10;;;;;;;-3.07;94.84;101076.78;5027337;28;20048;-57
2022/12/12 04:55:17;;;;;;;40.37;20.10;;;;;;;-3.11;94.69;101070.91;5019374;28;20041;-59
2022/12/12 04:57:53;;;;;;;36.80;20.00;;;;;;;-3.09;95.26;101067.38;5018524;28;20429;-59
2022/12/12 05:00:20;;;;;;;37.47;20.23;;;;;;;-3.12;95.18;101071.81;5023767;28;20036;-59
2022/12/12 05:03:02;;;;;;;38.60;19.93;;;;;;;-3.12;95.17;101074.41;5025977;28;20037;-59
2022/12/12 05:05:34;;;;;;;38.80;20.57;;;;;;;-3.17;95.34;101068.56;5021103;28;20121;-59
2022/12/12 05:08:09;;;;;;;41.37;20.60;;;;;;;-3.14;95.09;101076.25;5014142;28;20156;-59
2022/12/12 05:10:41;;;;;;;41.30;20.40;;;;;;;-3.20;94.76;101073.91;5019722;28;20057;-58
2022/12/12 05:13:15;;;;;;;38.83;21.35;;;;;;;-3.23;94.75;101071.44;5023059;28;20025;-58
2022/12/12 05:15:41;;;;;;;40.57;21.17;;;;;;;-3.28;94.94;101069.03;5015538;28;20493;-59
2022/12/12 05:18:07;;;;;;;37.43;21.23;;;;;;;-3.27;94.57;101069.88;5024451;28;20033;-57
2022/12/12 05:20:33;;;;;;;38.57;20.90;;;;;;;-3.30;95.09;101067.44;5018705;28;20183;-58
2022/12/12 05:22:58;;;;;;;38.20;21.57;;;;;;;-3.29;95.03;101066.50;5026061;28;20079;-57
2022/12/12 05:25:24;;;;;;;36.47;21.00;;;;;;;-3.34;94.27;101069.31;5023181;28;20029;-58
2022/12/12 05:27:49;;;;;;;39.10;20.30;;;;;;;-3.35;94.76;101077.16;5021785;28;20034;-59
2022/12/12 05:30:15;;;;;;;40.00;20.17;;;;;;;-3.36;94.32;101078.88;5027173;28;20045;-59
2022/12/12 05:32:40;;;;;;;40.97;21.70;;;;;;;-3.39;94.30;101066.06;5026653;28;20034;-58
2022/12/12 05:35:06;;;;;;;43.17;22.00;;;;;;;-3.39;94.31;101077.25;5027161;28;20120;-58
2022/12/12 05:37:32;;;;;;;41.60;21.87;;;;;;;-3.36;94.42;101070.28;5028504;28;20022;-60
2022/12/12 05:39:58;;;;;;;42.27;21.33;;;;;;;-3.39;94.54;101077.25;5025170;28;20658;-59
2022/12/12 05:42:24;;;;;;;37.77;19.97;;;;;;;-3.43;94.58;101080.91;5033648;28;20060;-60
2022/12/12 05:44:49;;;;;;;41.63;20.70;;;;;;;-3.45;95.15;101080.13;5021664;28;20045;-59
2022/12/12 05:47:15;;;;;;;40.77;20.73;;;;;;;-3.42;95.50;101084.34;5021370;28;20025;-60
2022/12/12 05:49:40;;;;;;;39.77;20.67;;;;;;;-3.49;95.34;101081.19;5025821;28;20037;-61
2022/12/12 05:52:05;;;;;;;40.00;20.17;;;;;;;-3.44;95.20;101084.41;5027244;28;20029;-58
2022/12/12 05:54:31;;;;;;;39.50;20.53;;;;;;;-3.43;95.59;101093.88;5021146;28;20073;-59
2022/12/12 05:56:56;;;;;;;39.27;21.10;;;;;;;-3.43;95.23;101086.09;5021870;28;20123;-58
2022/12/12 05:59:21;;;;;;;41.60;20.57;;;;;;;-3.48;94.93;101088.03;5030644;28;20464;-57
2022/12/12 06:01:47;;;;;;;42.37;21.13;;;;;;;-3.51;95.23;101088.16;5028909;28;20048;-58
2022/12/12 06:04:12;;;;;;;39.93;20.30;;;;;;;-3.50;95.28;101084.69;5022388;28;20039;-58
2022/12/12 06:06:37;;;;;;;40.80;20.87;;;;;;;-3.51;94.99;101090.75;5034334;28;20594;-58
2022/12/12 06:09:03;;;;;;;39.43;19.70;;;;;;;-3.48;95.08;101089.78;5032419;28;20116;-58
2022/12/12 06:11:28;;;;;;;39.63;20.83;;;;;;;-3.51;94.79;101099.38;5023104;28;20030;-59
2022/12/12 06:13:53;;;;;;;38.53;19.13;;;;;;;-3.51;94.78;101099.38;5024299;28;20083;-59
2022/12/12 06:16:19;;;;;;;38.07;20.13;;;;;;;-3.53;94.46;101097.75;5030176;28;20453;-60
2022/12/12 06:18:49;;;;;;;37.47;18.90;;;;;;;-3.55;94.32;101097.00;5027396;28;20038;-59
2022/12/12 06:21:14;;;;;;;39.93;20.50;;;;;;;-3.56;94.66;101090.94;5025073;28;20038;-58
2022/12/12 06:23:41;;;;;;;40.50;19.40;;;;;;;-3.56;94.87;101106.50;5022677;28;20487;-58
2022/12/12 06:26:09;;;;;;;43.70;20.43;;;;;;;-3.59;94.84;101101.47;5023500;28;20029;-58
2022/12/12 06:28:36;;;;;;;39.37;19.47;;;;;;;-3.62;94.84;101103.34;5025382;28;20049;-59
2022/12/12 06:31:01;;;;;;;40.03;19.37;;;;;;;-3.65;94.93;101102.53;5021823;28;20030;-58
2022/12/12 06:33:27;;;;;;;41.97;20.10;;;;;;;-3.62;94.98;101100.75;5029028;28;20048;-57
2022/12/12 06:36:22;;;;;;;36.17;17.60;;;;;;;-3.65;95.07;101106.91;5024777;28;20038;-59
2022/12/12 06:38:58;;;;;;;37.77;18.73;;;;;;;-3.73;95.09;101096.84;5020537;28;20038;-59
2022/12/12 06:41:25;;;;;;;42.67;19.77;;;;;;;-3.73;95.11;101102.03;5016901;28;20057;-59
2022/12/12 06:43:51;;;;;;;39.60;19.00;;;;;;;-3.77;94.97;101103.03;5023389;28;20120;-58
2022/12/12 06:46:20;;;;;;;39.53;19.47;;;;;;;-3.80;94.86;101109.19;5021100;28;20476;-58
2022/12/12 06:48:46;;;;;;;43.77;19.50;;;;;;;-3.78;95.11;101111.72;5024313;28;20115;-58
2022/12/12 06:51:16;;;;;;;37.83;19.07;;;;;;;-3.80;94.92;101113.53;5017102;28;20607;-58
2022/12/12 06:53:42;;;;;;;40.70;20.00;;;;;;;-3.80;94.69;101110.94;5020129;28;20022;-57
2022/12/12 06:56:09;;;;;;;38.73;19.13;;;;;;;-3.83;95.20;101116.25;5026719;28;20508;-58
2022/12/12 06:58:35;;;;;;;43.47;19.40;;;;;;;-3.88;94.78;101116.44;5023788;28;20052;-58
2022/12/12 07:01:00;;;;;;;40.43;19.37;;;;;;;-3.85;95.23;101115.47;5027932;28;20044;-59
2022/12/12 07:03:26;;;;;;;38.93;18.03;;;;;;;-3.86;94.60;101118.97;5026970;28;20109;-57
2022/12/12 07:05:51;;;;;;;38.57;18.20;;;;;;;-3.85;94.73;101120.66;5029092;28;20473;-59
2022/12/12 07:08:16;;;;;;;38.53;18.30;;;;;;;-3.88;94.98;101121.63;5024102;28;20039;-58
2022/12/12 07:10:43;;;;;;;39.70;19.87;;;;;;;-3.86;94.87;101118.97;5025368;28;20108;-59
2022/12/12 07:13:09;;;;;;;39.67;18.07;;;;;;;-3.92;95.10;101131.25;5020303;28;20084;-58
2022/12/12 07:15:41;;;;;;;38.93;18.20;;;;;;;-3.88;95.26;101125.94;5030833;28;20120;-59
2022/12/12 07:18:06;;;;;;;38.30;18.97;;;;;;;-3.97;94.92;101135.78;5029978;28;20029;-58
2022/12/12 07:20:32;;;;;;;41.00;18.17;;;;;;;-3.99;95.24;101135.00;5029699;28;20374;-57
2022/12/12 07:22:57;;;;;;;43.27;19.13;;;;;;;-3.99;95.38;101137.59;5022627;28;20026;-59
2022/12/12 07:25:22;;;;;;;40.63;18.53;;;;;;;-3.97;95.26;101148.72;5016933;28;20554;-60
2022/12/12 07:27:47;;;;;;;40.30;19.23;;;;;;;-3.96;95.34;101146.97;5021583;28;20030;-58
2022/12/12 07:30:13;;;;;;;40.83;18.03;;;;;;;-3.96;95.27;101149.56;5016994;28;20525;-58
2022/12/12 07:32:38;;;;;;;38.17;17.57;;;;;;;-3.95;95.21;101141.72;5023013;28;20057;-58
2022/12/12 07:35:03;;;;;;;39.57;18.43;;;;;;;-3.95;94.79;101152.09;5021304;28;20109;-58
2022/12/12 07:37:29;;;;;;;40.03;18.03;;;;;;;-3.95;95.18;101152.09;5019987;28;20037;-59
2022/12/12 07:39:54;;;;;;;39.33;17.37;;;;;;;-3.99;94.73;101145.38;5021285;28;20056;-58
2022/12/12 07:42:20;;;;;;;42.40;18.13;;;;;;;-3.98;94.65;101152.22;5020862;28;20038;-58
2022/12/12 07:44:45;;;;;;;39.57;18.70;;;;;;;-3.98;94.66;101160.00;5023110;28;21157;-59
2022/12/12 07:47:10;;;;;;;42.40;18.40;;;;;;;-3.99;94.39;101166.09;5019540;28;20033;-59
2022/12/12 07:49:36;;;;;;;38.83;18.17;;;;;;;-3.99;94.87;101165.25;5020510;28;20068;-59
2022/12/12 07:52:01;;;;;;;38.57;18.20;;;;;;;-4.02;94.73;101171.38;5023947;28;20034;-58
2022/12/12 07:54:27;;;;;;;40.93;18.20;;;;;;;-4.00;94.19;101168.75;5025125;28;20029;-60
2022/12/12 07:56:52;;;;;;;41.23;18.20;;;;;;;-3.96;94.71;101165.97;5024073;28;20112;-60
2022/12/12 07:59:17;;;;;;;40.60;18.40;;;;;;;-3.95;94.94;101170.22;5021978;28;20116;-59
2022/12/12 08:01:42;;;;;;;43.10;20.00;;;;;;;-3.92;94.69;101177.91;5024122;28;20033;-60
2022/12/12 08:04:08;;;;;;;43.43;20.10;;;;;;;-3.91;94.60;101178.72;5017445;28;20040;-58
2022/12/12 08:06:33;;;;;;;42.07;19.30;;;;;;;-3.88;94.48;101188.13;5014971;28;20049;-59
2022/12/12 08:08:58;;;;;;;39.80;18.43;;;;;;;-3.88;94.24;101182.94;5015774;28;20034;-58
2022/12/12 08:11:24;;;;;;;41.53;18.87;;;;;;;-3.86;94.35;101187.19;5014352;28;20037;-59
2022/12/12 08:13:50;;;;;;;42.50;18.97;;;;;;;-3.87;94.17;101184.63;5008801;28;20033;-60
2022/12/12 08:16:20;;;;;;;41.87;18.87;;;;;;;-3.85;94.51;101188.03;5010878;28;20041;-59
2022/12/12 08:18:46;;;;;;;42.77;19.03;;;;;;;-3.80;94.26;101196.47;5025209;28;20476;-59
2022/12/12 08:21:13;;;;;;;40.70;19.27;;;;;;;-3.87;94.03;101184.63;5019238;28;20021;-59
2022/12/12 08:23:39;;;;;;;43.10;18.60;;;;;;;-3.79;94.33;101187.78;5019623;28;20034;-60
2022/12/12 08:26:10;;;;;;;40.50;19.20;;;;;;;-3.77;94.47;101191.16;5027351;28;20046;-58
2022/12/12 08:28:37;;;;;;;40.87;18.90;;;;;;;-3.74;94.57;101195.38;5017186;28;20470;-59
2022/12/12 08:31:03;;;;;;;41.77;19.43;;;;;;;-3.75;94.30;101186.75;5019019;28;20034;-59
2022/12/12 08:33:28;;;;;;;42.07;18.70;;;;;;;-3.70;94.78;101192.59;5016388;28;20118;-58
2022/12/12 08:35:53;;;;;;;43.47;20.37;;;;;;;-3.70;94.38;101192.59;5020016;28;20366;-59
2022/12/12 08:38:19;;;;;;;43.27;18.50;;;;;;;-3.67;94.32;101202.88;5018226;28;20034;-61
2022/12/12 08:40:45;;;;;;;41.93;19.30;;;;;;;-3.63;93.99;101193.22;5024507;28;20045;-59
2022/12/12 08:43:10;;;;;;;40.30;19.07;;;;;;;-3.61;94.03;101203.53;5019005;28;20052;-59
2022/12/12 08:45:37;;;;;;;44.40;19.43;;;;;;;-3.60;93.76;101200.03;5021086;28;20471;-60
2022/12/12 08:48:02;;;;;;;39.93;18.63;;;;;;;-3.56;93.65;101196.41;5019862;28;20062;-59
2022/12/12 08:50:27;;;;;;;43.93;19.37;;;;;;;-3.54;93.80;101202.38;5021143;28;20053;-59
2022/12/12 08:52:53;;;;;;;40.93;18.27;;;;;;;-3.50;93.89;101198.78;5018674;28;21448;-61
2022/12/12 08:55:19;;;;;;;38.40;18.23;;;;;;;-3.48;93.79;101196.94;5018787;28;20030;-58
2022/12/12 08:57:44;;;;;;;37.93;17.30;;;;;;;-3.47;93.65;101197.81;5020400;28;20477;-60
2022/12/12 09:00:10;;;;;;;40.90;18.33;;;;;;;-3.44;93.69;101203.72;5029513;28;20057;-59
2022/12/12 09:02:35;;;;;;;39.50;18.30;;;;;;;-3.37;94.07;101204.28;5026287;28;20037;-58
2022/12/12 09:05:01;;;;;;;39.87;18.13;;;;;;;-3.32;93.66;101207.53;5021220;28;20642;-59
2022/12/12 09:07:26;;;;;;;41.13;17.77;;;;;;;-3.28;93.57;101203.06;5018477;28;20065;-59
2022/12/12 09:09:51;;;;;;;38.70;18.47;;;;;;;-3.26;94.31;101207.28;5024185;28;20457;-59
2022/12/12 09:12:17;;;;;;;38.00;17.33;;;;;;;-3.20;93.79;101206.22;5020364;28;20033;-59
2022/12/12 09:14:42;;;;;;;38.87;18.43;;;;;;;-3.18;93.61;101204.38;5025516;28;20116;-59
2022/12/12 09:17:07;;;;;;;41.50;18.67;;;;;;;-3.15;94.05;101209.44;5018113;28;20069;-58
2022/12/12 09:19:33;;;;;;;38.07;17.27;;;;;;;-3.11;93.96;101218.78;5017139;28;20048;-59
2022/12/12 09:21:58;;;;;;;39.53;16.87;;;;;;;-3.06;93.93;101213.41;5018893;28;20030;-58
2022/12/12 09:24:24;;;;;;;38.13;17.47;;;;;;;-3.06;93.87;101212.56;5025264;28;20481;-61
2022/12/12 09:26:49;;;;;;;38.93;17.27;;;;;;;-3.00;93.71;101207.13;5018718;28;20069;-59
2022/12/12 09:29:15;;;;;;;37.17;16.87;;;;;;;-2.99;93.36;101214.00;5020194;28;20061;-61
2022/12/12 09:31:40;;;;;;;40.77;17.10;;;;;;;-2.94;93.53;101209.47;5024098;28;20042;-59
2022/12/12 09:34:05;;;;;;;37.60;16.53;;;;;;;-2.90;93.25;101213.63;5028874;28;20041;-60
2022/12/12 09:36:31;;;;;;;36.97;16.93;;;;;;;-2.86;93.44;101209.97;5025430;28;20026;-58
2022/12/12 09:38:56;;;;;;;37.40;16.63;;;;;;;-2.81;93.51;101203.75;5017070;28;20037;-58
2022/12/12 09:41:29;;;;;;;35.33;16.70;;;;;;;-2.77;93.24;101202.72;5025027;28;20025;-58
2022/12/12 09:44:19;;;;;;;40.20;16.43;;;;;;;-2.72;93.15;101211.13;5031027;28;20057;-58
2022/12/12 09:46:59;;;;;;;37.33;16.30;;;;;;;-2.69;93.33;101208.41;5024002;28;20056;-58
2022/12/12 09:49:41;;;;;;;38.93;16.90;;;;;;;-2.68;92.81;101206.69;5029363;28;20075;-60
2022/12/12 09:52:12;;;;;;;39.38;17.70;;;;;;;-2.66;92.72;101210.91;5028207;28;20029;-57
2022/12/12 09:54:37;;;;;;;34.40;15.97;;;;;;;-2.62;93.09;101202.03;5032685;28;20033;-60
2022/12/12 09:57:39;;;;;;;39.50;16.77;;;;;;;-2.54;93.08;101200.84;5020087;28;20500;-59
2022/12/12 10:00:11;;;;;;;37.40;16.83;;;;;;;-2.54;92.89;101198.25;5012313;28;20041;-60
2022/12/12 10:02:51;;;;;;;37.20;16.90;;;;;;;-2.49;92.64;101196.31;5024384;28;20422;-59
2022/12/12 10:05:40;;;;;;;36.77;16.33;;;;;;;-2.45;92.54;101197.88;5030516;28;20077;-59
2022/12/12 10:08:29;;;;;;;37.10;17.00;;;;;;;-2.41;92.70;101199.44;5024620;28;20159;-58
2022/12/12 10:11:02;;;;;;;38.10;16.50;;;;;;;-2.39;92.41;101195.00;5023634;28;20058;-59
2022/12/12 10:13:32;;;;;;;36.80;16.40;;;;;;;-2.38;92.01;101196.69;5022187;28;20038;-59
2022/12/12 10:16:05;;;;;;;39.67;17.17;;;;;;;-2.31;92.64;101195.47;5031356;28;20500;-59
2022/12/12 10:18:38;;;;;;;35.17;16.50;;;;;;;-2.27;91.93;101195.38;5021408;28;20042;-58
2022/12/12 10:21:08;;;;;;;34.67;15.77;;;;;;;-2.26;91.88;101202.25;5026577;28;20029;-58
2022/12/12 10:23:49;;;;;;;37.93;16.40;;;;;;;-2.20;90.99;101196.75;5024344;28;20034;-58
2022/12/12 10:26:20;;;;;;;36.00;16.00;;;;;;;-2.25;90.92;101196.13;5024866;28;20032;-60
2022/12/12 10:28:49;;;;;;;34.77;15.77;;;;;;;-2.24;91.14;101201.25;5019580;28;20500;-59
2022/12/12 10:31:19;;;;;;;35.83;16.63;;;;;;;-2.24;91.46;101190.00;5018512;28;20493;-57
2022/12/12 10:34:07;;;;;;;35.87;16.00;;;;;;;-2.15;91.31;101194.81;5019218;28;20496;-57
2022/12/12 10:36:47;;;;;;;32.10;14.93;;;;;;;-2.13;91.52;101194.75;5021540;28;20473;-59
2022/12/12 10:39:32;;;;;;;33.27;15.67;;;;;;;-2.08;91.28;101191.00;5020641;28;20492;-56
2022/12/12 10:42:05;;;;;;;33.70;14.80;;;;;;;-2.08;90.66;101178.00;5018013;28;20080;-57
2022/12/12 10:45:06;;;;;;;32.40;14.60;;;;;;;-2.03;90.43;101173.44;5023400;28;20348;-56
2022/12/12 10:47:33;;;;;;;32.13;14.90;;;;;;;-2.01;90.54;101169.94;5019066;28;20025;-56
2022/12/12 10:50:10;;;;;;;34.47;15.17;;;;;;;-1.96;90.84;101175.75;5033918;28;20033;-58
2022/12/12 10:52:36;;;;;;;31.63;14.17;;;;;;;-1.93;90.39;101167.84;5021561;28;20195;-57
2022/12/12 10:55:16;;;;;;;32.03;14.60;;;;;;;-1.88;89.54;101181.44;5024805;28;20040;-58
2022/12/12 10:57:41;;;;;;;30.30;14.23;;;;;;;-1.87;89.19;101177.94;5027568;28;20583;-57
2022/12/12 11:00:17;;;;;;;33.40;14.77;;;;;;;-1.83;89.65;101189.84;5025804;28;20104;-59
2022/12/12 11:02:43;;;;;;;30.83;14.30;;;;;;;-1.77;89.36;101179.16;5023976;28;20044;-58
2022/12/12 11:05:08;;;;;;;30.67;13.67;;;;;;;-1.73;89.17;101185.06;5024115;28;20021;-58
2022/12/12 11:07:39;;;;;;;30.23;14.07;;;;;;;-1.69;88.82;101175.34;5026994;28;20211;-59
2022/12/12 11:10:21;;;;;;;28.97;13.50;;;;;;;-1.65;88.85;101177.75;5025007;28;20630;-59
2022/12/12 11:12:54;;;;;;;27.90;13.17;;;;;;;-1.54;87.32;101173.78;5026151;28;20041;-57
2022/12/12 11:15:19;;;;;;;;;;;;;;;-1.52;88.79;101172.78;5028700;28;20088;-59
2022/12/12 11:17:44;;;;;;;30.50;12.97;;;;;;;-1.53;87.59;101170.28;5022646;28;20418;-57
2022/12/12 11:20:17;;;;;;;29.97;13.83;;;;;;;-1.53;87.58;101165.91;5014470;28;20030;-58
2022/12/12 11:22:43;;;;;;;31.23;14.52;;;;;;;-1.50;88.07;101160.56;5024735;28;20037;-60
2022/12/12 11:25:27;;;;;;;34.20;14.73;;;;;;;-1.46;88.42;101160.41;5028757;28;20446;-58
2022/12/12 11:27:53;;;;;;;30.07;14.00;;;;;;;-1.43;88.15;101160.25;5026174;28;20037;-58
2022/12/12 11:30:32;;;;;;;29.47;14.70;;;;;;;-1.40;87.90;101165.31;5030384;28;20033;-59
2022/12/12 11:32:58;;;;;;;30.30;14.07;;;;;;;-1.38;87.53;101168.69;5017432;28;20069;-59
2022/12/12 11:35:33;;;;;;;29.53;14.03;;;;;;;-1.38;87.95;101150.47;5020213;28;20505;-57